Wilmette, IL

11:44 PM CDT on August 26, 2016 (GMT -0500)
Wilmette, Illinois | | Change Station

Elev 646 ft 42.07 °N, 87.72 °W | Updated 1 minute ago

Overcast
Overcast
73.4 °F
Feels Like 75 °F
N
0.6
Wind Variable Wind from West

Today
High -- | Low -- °F
--% Chance of Precip.
Yesterday
High -- | Low -- °F
Precip. -- in
Pressure 30.14 in
Visibility 10.0 miles
Clouds Mostly Cloudy 3600 ft
Overcast 7000 ft
Heat Index 75 °F
Dew Point 63 °F
Humidity 75%
Rainfall Not available.
Snow Depth Not available.
6:10 AM 7:33 PM
Waning Crescent, 28% visible
SPECI KPWK 270427Z AUTO 08005KT 10SM VCTS BKN036 OVC070 22/17 A3014 RMK AO2 LTG DSNT W T02170167
Pressure 30.14 in
Visibility 10.0 miles
Clouds Mostly Cloudy 3600 ft
Overcast 7000 ft
Heat Index 75 °F
Dew Point 63 °F
Humidity 75%
Rainfall Not available.
Snow Depth Not available.
6:10 AM 7:33 PM
Waning Crescent, 28% visible
SPECI KPWK 270427Z AUTO 08005KT 10SM VCTS BKN036 OVC070 22/17 A3014 RMK AO2 LTG DSNT W T02170167

10-Day Weather Forecast

Almanac

Astronomy

Aug. 26, 2016 Rise Set
Actual Time
Civil Twilight
Nautical Twilight
Astronomical Twilight
Moon
Length of Visible Light
Length of Day
Tomorrow will be .
, % of the Moon is Illuminated

Today's Extremes

State Highs State Lows

Community

WunderPhotos

Upload Photos

1,935,299 photos uploaded!

WunderBlog® & News

Nearby

Air Quality

  Air Quality AQ Index Pollutant
Not available.

Snow Depth

Station Depth Elevation

Earthquake Activity

City Distance Mag. Time & Date
Minimum magnitude displayed is 2.5.

Coastal Water Temperatures

Place Temperature

Stations

Nearby Weather Stations

Station Location Temp. Windchill Dew Point Humidity Wind Precip. Elev Updated Type
                   

Watches & Warnings

There are currently no watches in effect.